createdAt,value
2024-01-15T00:02:12.816Z,94132.47
2024-01-15T00:07:15.625Z,94124.69
2024-01-15T00:12:18.211Z,94117.84
2024-01-15T00:17:21.183Z,94115.84
2024-01-15T00:22:26.597Z,94123.88
2024-01-15T00:27:29.206Z,94105.16
2024-01-15T00:32:32.761Z,94070.56
2024-01-15T00:37:35.797Z,94102.09
2024-01-15T00:42:38.793Z,94116.91
2024-01-15T00:47:41.625Z,94090.09
2024-01-15T00:52:44.938Z,94088.38
2024-01-15T00:57:48.655Z,94062.19
2024-01-15T01:02:52.115Z,94061.47
2024-01-15T01:07:55.261Z,94050.25
2024-01-15T01:12:58.041Z,94035.78
2024-01-15T01:18:01.821Z,94049.34
2024-01-15T01:23:05.677Z,94060.84
2024-01-15T01:28:09.205Z,94057.25
2024-01-15T01:33:13.155Z,94043.38
2024-01-15T01:38:16.707Z,94037.94
2024-01-15T01:43:20.005Z,94044.06
2024-01-15T01:48:23.085Z,94039.84
2024-01-15T01:53:30.726Z,94065.94
2024-01-15T01:58:35.984Z,94051.72
2024-01-15T02:03:39.505Z,94044.84
2024-01-15T02:08:45.481Z,94041.41
2024-01-15T02:13:48.356Z,94033.91
2024-01-15T02:18:52.515Z,94038.63
2024-01-15T02:23:56.072Z,94045.63
2024-01-15T02:29:00.348Z,94016.75
2024-01-15T02:34:03.576Z,94027.38
2024-01-15T02:39:07.054Z,94044.50
2024-01-15T02:44:13.459Z,94038.59
2024-01-15T02:49:18.329Z,94043.59
2024-01-15T02:54:28.073Z,94042.97
2024-01-15T02:59:30.824Z,94041.94
2024-01-15T03:04:34.354Z,94048.03
2024-01-15T03:09:38.091Z,94042.59
2024-01-15T03:14:41.082Z,94024.59
2024-01-15T03:19:43.966Z,94013.06
2024-01-15T03:24:47.609Z,93991.03
2024-01-15T03:29:51.079Z,93976.97
2024-01-15T03:34:56.060Z,93979.16
2024-01-15T03:39:58.855Z,93980.72
2024-01-15T03:45:02.252Z,93978.47
2024-01-15T03:50:07.415Z,93974.56
2024-01-15T03:55:12.078Z,93978.19
2024-01-15T04:00:19.165Z,93963.97
2024-01-15T04:05:22.988Z,93954.47
2024-01-15T04:10:26.365Z,93952.09
2024-01-15T04:15:30.240Z,93955.22
2024-01-15T04:20:33.317Z,93954.44
2024-01-15T04:25:36.380Z,93948.03
2024-01-15T04:30:39.260Z,93947.25
2024-01-15T04:35:42.706Z,93955.38
2024-01-15T04:40:46.416Z,93949.44
2024-01-15T04:45:51.641Z,93943.22
2024-01-15T04:50:57.350Z,93931.97
2024-01-15T04:56:00.301Z,93924.34
2024-01-15T05:01:03.723Z,93920.00
2024-01-15T05:06:09.335Z,93912.53
2024-01-15T05:11:13.188Z,93916.69
2024-01-15T05:16:16.548Z,93912.78
2024-01-15T05:21:19.320Z,93905.50
2024-01-15T05:26:24.560Z,93891.41
2024-01-15T05:31:28.588Z,93903.44
2024-01-15T05:36:32.497Z,93888.47
2024-01-15T05:41:35.541Z,93890.31
2024-01-15T05:46:38.509Z,93895.44
2024-01-15T05:51:44.511Z,93906.53
2024-01-15T05:56:48.330Z,93900.28
2024-01-15T06:01:53.521Z,93897.47
2024-01-15T06:06:56.772Z,93906.72
2024-01-15T06:11:59.495Z,93906.88
2024-01-15T06:17:02.446Z,93892.03
2024-01-15T06:22:06.316Z,93902.81
2024-01-15T06:27:09.110Z,93910.13
2024-01-15T06:32:12.260Z,93916.06
2024-01-15T06:37:16.496Z,93921.28
2024-01-15T06:42:19.664Z,93905.00
2024-01-15T06:47:23.059Z,93894.06
2024-01-15T06:52:26.170Z,93908.25
2024-01-15T06:57:28.884Z,93915.97
2024-01-15T07:02:32.183Z,93919.06
2024-01-15T07:07:36.004Z,93915.34
2024-01-15T07:12:39.617Z,93911.59
2024-01-15T07:17:42.968Z,93908.44
2024-01-15T07:22:45.855Z,93910.47
2024-01-15T07:27:49.247Z,93905.94
2024-01-15T07:32:52.217Z,93892.22
2024-01-15T07:37:56.541Z,93894.25
2024-01-15T07:42:59.464Z,93908.59
2024-01-15T07:48:02.588Z,93901.75
2024-01-15T07:53:06.252Z,93901.41
2024-01-15T07:58:15.889Z,93917.50
2024-01-15T08:03:21.177Z,93931.59
2024-01-15T08:08:24.664Z,93934.25
2024-01-15T08:13:29.419Z,93932.03
2024-01-15T08:18:32.385Z,93932.53
2024-01-15T08:23:36.027Z,93921.13
2024-01-15T08:28:40.083Z,93936.88
2024-01-15T08:33:44.025Z,93952.53
2024-01-15T08:38:46.886Z,93943.59
2024-01-15T08:43:51.843Z,93955.97
2024-01-15T08:48:55.858Z,93942.19
2024-01-15T08:54:00.210Z,93954.56
2024-01-15T08:59:04.916Z,93943.44
2024-01-15T09:04:08.880Z,93961.09
2024-01-15T09:09:19.081Z,93950.16
2024-01-15T09:14:33.143Z,93954.03
2024-01-15T09:19:43.521Z,93962.16
2024-01-15T09:24:48.722Z,93975.91
2024-01-15T09:29:53.075Z,93969.97
2024-01-15T09:34:56.862Z,93961.97
2024-01-15T09:39:59.551Z,93953.66
2024-01-15T09:45:20.011Z,93968.41
2024-01-15T09:50:27.820Z,93966.00
2024-01-15T09:55:32.006Z,93977.06
2024-01-15T10:00:40.529Z,93972.31
2024-01-15T10:05:46.013Z,93991.09
2024-01-15T10:10:49.862Z,93987.44
2024-01-15T10:15:53.796Z,93979.28
2024-01-15T10:20:57.299Z,93980.66
2024-01-15T10:26:01.492Z,93992.50
2024-01-15T10:31:05.448Z,93991.19
2024-01-15T10:36:13.789Z,93996.00
2024-01-15T10:41:18.378Z,93988.28
2024-01-15T10:46:21.448Z,93991.53
2024-01-15T10:51:27.602Z,93984.00
2024-01-15T10:56:37.866Z,93966.13
2024-01-15T11:01:41.034Z,93975.19
2024-01-15T11:06:46.451Z,93975.56
2024-01-15T11:11:54.920Z,93968.38
2024-01-15T11:17:03.147Z,93955.28
2024-01-15T11:22:08.868Z,93954.72
2024-01-15T11:27:13.114Z,93946.97
2024-01-15T11:32:18.825Z,93932.00
2024-01-15T11:37:25.493Z,93928.34
2024-01-15T11:42:29.401Z,93925.16
2024-01-15T11:48:00.700Z,93913.38
2024-01-15T11:53:07.453Z,93909.84
2024-01-15T11:58:11.554Z,93908.72
2024-01-15T12:03:15.442Z,93894.47
2024-01-15T12:08:25.603Z,93904.28
2024-01-15T12:13:30.038Z,93889.16
2024-01-15T12:18:33.315Z,93889.25
2024-01-15T12:23:37.438Z,93884.69
2024-01-15T12:28:41.128Z,93882.66
2024-01-15T12:33:45.406Z,93877.13
2024-01-15T12:38:48.575Z,93875.88
2024-01-15T12:43:52.433Z,93867.97
2024-01-15T12:48:55.478Z,93858.88
2024-01-15T12:53:58.527Z,93849.53
2024-01-15T12:59:01.736Z,93843.50
2024-01-15T13:04:04.937Z,93841.25
2024-01-15T13:09:07.771Z,93848.50
2024-01-15T13:14:11.288Z,93834.22
2024-01-15T13:19:20.555Z,93827.38
2024-01-15T13:24:26.205Z,93811.75
2024-01-15T13:29:28.793Z,93806.94
2024-01-15T13:34:33.901Z,93797.47
2024-01-15T13:39:45.672Z,93786.44
2024-01-15T13:44:49.323Z,93787.28
2024-01-15T13:49:52.506Z,93781.09
2024-01-15T13:54:55.290Z,93782.28
2024-01-15T13:59:58.299Z,93788.19
2024-01-15T14:05:01.458Z,93789.66
2024-01-15T14:10:07.203Z,93794.91
2024-01-15T14:15:10.745Z,93778.16
2024-01-15T14:20:14.525Z,93785.81
2024-01-15T14:25:17.445Z,93780.56
2024-01-15T14:30:20.269Z,93771.66
2024-01-15T14:35:23.421Z,93775.03
2024-01-15T14:40:27.477Z,93767.63
2024-01-15T14:45:31.712Z,93766.22
2024-01-15T14:50:34.457Z,93772.09
2024-01-15T14:55:37.832Z,93775.31
2024-01-15T15:00:40.506Z,93765.38
2024-01-15T15:05:43.888Z,93773.84
2024-01-15T15:10:46.969Z,93768.97
2024-01-15T15:15:51.377Z,93763.16
2024-01-15T15:20:55.789Z,93765.56
2024-01-15T15:26:00.747Z,93763.13
2024-01-15T15:31:08.525Z,93776.28
2024-01-15T15:36:13.547Z,93775.81
2024-01-15T15:41:17.663Z,93765.63
2024-01-15T15:46:20.991Z,93787.53
2024-01-15T15:51:24.390Z,93786.34
2024-01-15T15:56:27.560Z,93791.97
2024-01-15T16:01:30.394Z,93785.81
2024-01-15T16:06:33.121Z,93793.06
2024-01-15T16:11:36.002Z,93806.69
2024-01-15T16:23:12.036Z,93808.47
2024-01-15T16:23:39.786Z,93833.72
2024-01-15T16:27:24.845Z,93838.09
2024-01-15T16:32:27.743Z,93838.00
2024-01-15T16:37:30.592Z,93851.19
2024-01-15T16:42:33.396Z,93850.66
2024-01-15T16:47:36.814Z,93853.66
2024-01-15T16:52:41.309Z,93850.53
2024-01-15T16:57:44.470Z,93860.81
2024-01-15T17:02:47.292Z,93861.81
2024-01-15T17:07:50.232Z,93877.84
2024-01-15T17:12:52.967Z,93844.56
2024-01-15T17:17:55.966Z,93844.47
2024-01-15T17:22:59.697Z,93825.34
2024-01-15T17:28:03.229Z,93845.56
2024-01-15T17:33:08.761Z,93838.56
2024-01-15T17:38:13.598Z,93840.34
2024-01-15T17:43:16.916Z,93858.16
2024-01-15T17:48:20.233Z,93879.44
2024-01-15T17:53:24.309Z,93879.53
2024-01-15T17:58:28.765Z,93884.22
2024-01-15T18:03:32.663Z,93868.97
2024-01-15T18:08:38.835Z,93889.22
2024-01-15T18:13:42.894Z,93892.56
2024-01-15T18:18:46.854Z,93896.03
2024-01-15T18:23:50.408Z,93894.13
2024-01-15T18:28:52.773Z,93884.13
2024-01-15T18:33:55.673Z,93904.94
2024-01-15T18:39:01.002Z,93913.38
2024-01-15T18:44:03.926Z,93912.50
2024-01-15T18:49:07.636Z,93911.38
2024-01-15T18:54:12.104Z,93916.84
2024-01-15T18:59:15.814Z,93929.41
2024-01-15T19:04:19.023Z,93924.41
2024-01-15T19:09:22.056Z,93923.97
2024-01-15T19:14:25.241Z,93933.53
2024-01-15T19:19:28.243Z,93924.53
2024-01-15T19:24:31.069Z,93925.16
2024-01-15T19:29:38.132Z,93918.06
2024-01-15T19:34:45.152Z,93925.75
2024-01-15T19:39:54.410Z,93932.97
2024-01-15T19:44:59.831Z,93931.09
2024-01-15T19:50:03.457Z,93935.06
2024-01-15T19:55:08.095Z,93935.28
2024-01-15T20:00:13.717Z,93931.84
2024-01-15T20:05:17.811Z,93921.25
2024-01-15T20:10:24.659Z,93925.16
2024-01-15T20:15:32.888Z,93911.56
2024-01-15T20:20:35.956Z,93905.78
2024-01-15T20:25:40.866Z,93901.84
2024-01-15T20:30:45.745Z,93911.44
2024-01-15T20:35:49.256Z,93916.31
2024-01-15T20:40:52.223Z,93908.06
2024-01-15T20:45:54.836Z,93894.25
2024-01-15T20:50:59.749Z,93896.91
2024-01-15T20:56:02.624Z,93895.81
2024-01-15T21:01:06.364Z,93897.91
2024-01-15T21:06:10.593Z,93901.59
2024-01-15T21:11:15.375Z,93895.59
2024-01-15T21:16:18.625Z,93903.47
2024-01-15T21:21:22.566Z,93894.75
2024-01-15T21:26:25.628Z,93901.13
2024-01-15T21:31:28.578Z,93902.00
2024-01-15T21:36:58.833Z,93902.00
2024-01-15T21:42:03.757Z,93910.00
2024-01-15T21:47:06.639Z,93925.63
2024-01-15T21:52:10.552Z,93924.53
2024-01-15T21:57:14.317Z,93914.72
2024-01-15T22:02:16.895Z,93912.47
2024-01-15T22:07:19.752Z,93917.38
2024-01-15T22:12:23.329Z,93917.03
2024-01-15T22:17:27.558Z,93924.38
2024-01-15T22:22:31.554Z,93930.06
2024-01-15T22:27:34.948Z,93920.47
2024-01-15T22:32:37.858Z,93921.28
2024-01-15T22:37:42.304Z,93929.28
2024-01-15T22:42:45.187Z,93923.50
2024-01-15T22:47:47.725Z,93923.94
2024-01-15T22:52:50.749Z,93917.03
2024-01-15T22:57:53.664Z,93910.91
2024-01-15T23:02:58.832Z,93909.09
2024-01-15T23:08:01.890Z,93916.59
2024-01-15T23:13:06.240Z,93911.25
2024-01-15T23:18:13.086Z,93916.59
2024-01-15T23:23:17.249Z,93909.47
2024-01-15T23:28:22.145Z,93917.38
2024-01-15T23:33:26.635Z,93915.72
2024-01-15T23:38:31.514Z,93920.16
2024-01-15T23:43:36.934Z,93919.97
2024-01-15T23:48:42.858Z,93923.63
2024-01-15T23:53:48.137Z,93908.69
2024-01-15T23:58:51.707Z,93909.50
